createdAt,value
2022-11-09T00:00:41.879Z,99831.91
2022-11-09T00:05:43.430Z,99850.97
2022-11-09T00:10:44.990Z,99854.09
2022-11-09T00:15:48.713Z,99880.16
2022-11-09T00:20:50.263Z,99881.94
2022-11-09T00:25:51.849Z,99893.84
2022-11-09T00:30:59.355Z,99927.88
2022-11-09T00:36:07.363Z,99979.78
2022-11-09T00:41:12.340Z,99973.13
2022-11-09T00:46:14.167Z,99969.09
2022-11-09T00:51:19.044Z,99953.94
2022-11-09T00:56:21.468Z,99950.38
2022-11-09T01:01:23.382Z,99965.63
2022-11-09T01:06:26.302Z,99971.81
2022-11-09T01:11:28.110Z,99968.50
2022-11-09T01:16:29.804Z,99970.06
2022-11-09T01:21:31.871Z,99966.47
2022-11-09T01:26:35.136Z,99959.91
2022-11-09T01:31:36.696Z,99966.94
2022-11-09T01:36:38.255Z,99978.38
2022-11-09T01:41:39.902Z,99983.75
2022-11-09T01:46:50.633Z,99995.28
2022-11-09T01:52:01.622Z,99981.59
2022-11-09T01:57:10.518Z,99981.34
2022-11-09T02:02:12.764Z,99980.69
2022-11-09T02:07:19.615Z,99982.31
2022-11-09T02:12:22.881Z,99981.38
2022-11-09T02:17:24.755Z,99989.72
2022-11-09T02:22:26.804Z,99991.50
2022-11-09T02:27:28.418Z,99990.31
2022-11-09T02:32:30.810Z,99989.84
2022-11-09T02:37:47.152Z,99993.63
2022-11-09T02:42:48.820Z,99999.94
2022-11-09T02:47:50.419Z,99982.69
2022-11-09T02:52:52.282Z,99970.03
2022-11-09T02:57:54.076Z,99961.59
2022-11-09T03:02:58.148Z,99956.84
2022-11-09T03:08:02.551Z,99950.75
2022-11-09T03:13:07.447Z,99946.34
2022-11-09T03:18:10.015Z,99931.56
2022-11-09T03:23:12.350Z,99929.19
2022-11-09T03:28:17.032Z,99939.19
2022-11-09T03:33:19.415Z,99947.06
2022-11-09T03:38:21.414Z,99946.69
2022-11-09T03:43:24.488Z,99945.72
2022-11-09T03:48:26.064Z,99957.84
2022-11-09T03:53:27.679Z,99978.22
2022-11-09T03:58:29.210Z,99994.31
2022-11-09T04:03:30.769Z,99989.03
2022-11-09T04:08:34.485Z,99993.56
2022-11-09T04:13:36.110Z,100003.56
2022-11-09T04:18:37.916Z,100014.06
2022-11-09T04:23:39.539Z,99998.19
2022-11-09T04:28:41.203Z,99998.84
2022-11-09T04:33:42.780Z,99995.88
2022-11-09T04:38:44.448Z,99995.72
2022-11-09T04:43:46.037Z,99982.94
2022-11-09T04:48:47.678Z,99992.03
2022-11-09T04:53:49.246Z,99985.44
2022-11-09T04:58:50.808Z,99976.88
2022-11-09T05:03:54.923Z,99975.88
2022-11-09T05:08:56.717Z,99974.00
2022-11-09T05:13:58.439Z,99986.03
2022-11-09T05:19:00.009Z,99980.78
2022-11-09T05:24:02.980Z,99990.34
2022-11-09T05:29:10.279Z,99988.47
2022-11-09T05:34:13.644Z,100003.47
2022-11-09T05:39:15.293Z,100042.03
2022-11-09T05:44:17.008Z,100057.44
2022-11-09T05:49:18.606Z,100055.19
2022-11-09T05:54:20.152Z,100114.22
2022-11-09T05:59:21.713Z,100132.69
2022-11-09T06:04:23.320Z,100133.03
2022-11-09T06:09:24.863Z,100134.94
2022-11-09T06:14:26.725Z,100121.13
2022-11-09T06:19:29.517Z,100128.16
2022-11-09T06:24:31.156Z,100109.22
2022-11-09T06:29:33.183Z,100102.44
2022-11-09T06:34:34.777Z,100116.00
2022-11-09T06:39:36.381Z,100121.72
2022-11-09T06:44:38.127Z,100118.28
2022-11-09T06:49:39.778Z,100123.03
2022-11-09T06:54:41.339Z,100127.56
2022-11-09T06:59:43.067Z,100134.72
2022-11-09T07:04:45.049Z,100147.94
2022-11-09T07:09:47.426Z,100159.25
2022-11-09T07:14:49.037Z,100167.25
2022-11-09T07:19:50.607Z,100167.03
2022-11-09T07:24:55.759Z,100166.78
2022-11-09T07:29:57.317Z,100152.03
2022-11-09T07:34:58.869Z,100152.63
2022-11-09T07:40:00.453Z,100143.28
2022-11-09T07:45:02.056Z,100135.31
2022-11-09T07:50:04.391Z,100140.78
2022-11-09T07:55:06.532Z,100153.63
2022-11-09T08:00:08.879Z,100149.47
2022-11-09T08:05:14.129Z,100167.91
2022-11-09T08:10:15.983Z,100177.81
2022-11-09T08:15:17.582Z,100201.38
2022-11-09T08:20:19.963Z,100207.97
2022-11-09T08:25:21.617Z,100208.75
2022-11-09T08:30:23.382Z,100234.44
2022-11-09T08:35:26.113Z,100235.25
2022-11-09T08:40:27.782Z,100228.44
2022-11-09T08:45:32.464Z,100241.28
2022-11-09T08:50:36.111Z,100247.31
2022-11-09T08:55:37.836Z,100252.97
2022-11-09T09:00:39.415Z,100268.31
2022-11-09T09:05:42.378Z,100262.41
2022-11-09T09:10:43.937Z,100272.00
2022-11-09T09:15:45.501Z,100288.69
2022-11-09T09:20:50.056Z,100291.63
2022-11-09T09:25:55.148Z,100310.94
2022-11-09T09:31:00.456Z,100313.16
2022-11-09T09:36:02.313Z,100320.03
2022-11-09T09:41:21.738Z,100331.63
2022-11-09T09:46:37.633Z,100341.47
2022-11-09T09:51:46.977Z,100323.03
2022-11-09T09:56:51.033Z,100290.34
2022-11-09T10:01:57.368Z,100249.06
2022-11-09T10:07:24.266Z,100203.88
2022-11-09T10:12:38.154Z,100168.03
2022-11-09T10:18:07.234Z,100148.22
2022-11-09T10:23:17.541Z,100141.03
2022-11-09T10:28:23.744Z,100140.47
2022-11-09T10:33:28.440Z,100138.00
2022-11-09T10:38:39.221Z,100132.75
2022-11-09T10:43:59.055Z,100131.66
2022-11-09T10:49:21.563Z,100126.09
2022-11-09T10:54:41.520Z,100132.16
2022-11-09T11:00:02.492Z,100134.31
2022-11-09T11:05:29.015Z,100126.06
2022-11-09T11:10:49.179Z,100122.22
2022-11-09T11:16:36.945Z,100111.72
2022-11-09T11:22:12.413Z,100121.69
2022-11-09T11:27:45.118Z,100115.88
2022-11-09T11:33:14.942Z,100111.47
2022-11-09T11:38:39.952Z,100113.66
2022-11-09T11:44:24.633Z,100108.13
2022-11-09T11:50:03.362Z,100116.44
2022-11-09T11:55:51.617Z,100120.31
2022-11-09T12:01:25.933Z,100120.84
2022-11-09T12:07:04.692Z,100115.88
2022-11-09T12:13:01.553Z,100112.81
2022-11-09T12:18:24.481Z,100114.16
2022-11-09T12:24:12.428Z,100115.88
2022-11-09T12:29:59.276Z,100109.47
2022-11-09T12:35:34.321Z,100113.09
2022-11-09T12:41:02.187Z,100111.72
2022-11-09T12:46:29.184Z,100115.34
2022-11-09T12:51:49.865Z,100107.31
2022-11-09T12:57:16.099Z,100116.19
2022-11-09T13:02:42.904Z,100118.94
2022-11-09T13:08:14.617Z,100119.75
2022-11-09T13:13:35.114Z,100116.97
2022-11-09T13:18:55.045Z,100103.69
2022-11-09T13:24:30.404Z,100100.66
2022-11-09T13:29:55.305Z,100095.13
2022-11-09T13:35:39.771Z,100105.06
2022-11-09T13:41:01.779Z,100109.75
2022-11-09T13:46:29.592Z,100113.31
2022-11-09T13:51:49.839Z,100108.31
2022-11-09T13:57:10.956Z,100117.59
2022-11-09T14:02:30.916Z,100110.91
2022-11-09T14:07:53.847Z,100118.34
2022-11-09T14:13:32.833Z,100123.41
2022-11-09T14:19:05.612Z,100119.16
2022-11-09T14:24:33.580Z,100121.16
2022-11-09T14:29:55.884Z,100123.00
2022-11-09T14:35:21.399Z,100127.81
2022-11-09T14:40:46.646Z,100130.34
2022-11-09T14:46:14.440Z,100126.28
2022-11-09T14:51:39.874Z,100129.19
2022-11-09T14:57:00.731Z,100126.88
2022-11-09T15:02:23.504Z,100134.25
2022-11-09T15:07:48.377Z,100132.66
2022-11-09T15:13:09.014Z,100129.72
2022-11-09T15:18:34.176Z,100131.78
2022-11-09T15:24:06.830Z,100124.47
2022-11-09T15:29:36.559Z,100110.09
2022-11-09T15:34:58.754Z,100118.50
2022-11-09T15:40:21.897Z,100116.44
2022-11-09T15:45:42.235Z,100109.19
2022-11-09T15:51:02.473Z,100101.72
2022-11-09T15:56:24.441Z,100107.88
2022-11-09T16:01:44.547Z,100124.88
2022-11-09T16:07:04.849Z,100126.38
2022-11-09T16:12:25.049Z,100138.13
2022-11-09T16:17:45.925Z,100150.59
2022-11-09T16:23:06.160Z,100170.59
2022-11-09T16:28:26.502Z,100173.81
2022-11-09T16:33:46.734Z,100188.31
2022-11-09T16:39:09.287Z,100198.81
2022-11-09T16:44:34.109Z,100205.31
2022-11-09T16:49:53.986Z,100217.84
2022-11-09T16:55:14.348Z,100229.94
2022-11-09T17:06:14.819Z,100237.81
2022-11-09T17:11:35.042Z,100245.09
2022-11-09T17:16:57.236Z,100252.50
2022-11-09T17:22:18.022Z,100265.88
2022-11-09T17:27:38.735Z,100274.00
2022-11-09T17:32:59.418Z,100274.13
2022-11-09T17:38:19.788Z,100285.00
2022-11-09T17:43:41.340Z,100294.53
2022-11-09T17:49:09.558Z,100301.22
2022-11-09T17:54:35.480Z,100324.38
2022-11-09T17:59:56.845Z,100319.47
2022-11-09T18:05:16.871Z,100331.06
2022-11-09T18:10:38.975Z,100336.69
2022-11-09T18:15:59.386Z,100344.44
2022-11-09T18:21:19.658Z,100351.13
2022-11-09T18:26:39.739Z,100352.94
2022-11-09T18:31:59.868Z,100355.31
2022-11-09T18:37:19.859Z,100359.38
2022-11-09T18:42:39.766Z,100378.94
2022-11-09T18:48:02.580Z,100401.47
2022-11-09T18:53:24.600Z,100414.59
2022-11-09T18:58:46.136Z,100431.31
2022-11-09T19:04:06.429Z,100438.66
2022-11-09T19:09:29.621Z,100436.03
2022-11-09T19:14:49.745Z,100442.72
2022-11-09T19:20:09.806Z,100448.53
2022-11-09T19:25:30.011Z,100468.00
2022-11-09T19:30:49.935Z,100470.06
2022-11-09T19:41:50.386Z,100488.56
2022-11-09T19:47:11.382Z,100498.94
2022-11-09T19:52:31.489Z,100525.91
2022-11-09T19:57:54.178Z,100536.56
2022-11-09T20:03:14.644Z,100529.72
2022-11-09T20:08:36.487Z,100537.19
2022-11-09T20:13:56.686Z,100554.00
2022-11-09T20:19:17.697Z,100559.06
2022-11-09T20:24:37.873Z,100571.94
2022-11-09T20:29:57.722Z,100590.25
2022-11-09T20:35:17.862Z,100596.84
2022-11-09T20:40:37.969Z,100605.50
2022-11-09T20:46:04.144Z,100610.63
2022-11-09T20:51:24.505Z,100623.88
2022-11-09T20:56:45.684Z,100629.97
2022-11-09T21:02:05.761Z,100650.69
2022-11-09T21:07:25.841Z,100657.47
2022-11-09T21:12:45.678Z,100661.47
2022-11-09T21:18:07.338Z,100668.84
2022-11-09T21:23:27.529Z,100680.22
2022-11-09T21:29:06.135Z,100676.53
2022-11-09T21:34:28.700Z,100694.09
2022-11-09T21:39:50.849Z,100696.38
2022-11-09T21:45:10.655Z,100711.34
2022-11-09T21:50:30.660Z,100725.50
2022-11-09T21:55:50.796Z,100734.41
2022-11-09T22:01:10.878Z,100742.06
2022-11-09T22:06:31.157Z,100745.91
2022-11-09T22:12:09.908Z,100752.69
2022-11-09T22:17:29.935Z,100761.06
2022-11-09T22:22:50.366Z,100782.09
2022-11-09T22:28:10.387Z,100790.53
2022-11-09T22:33:31.427Z,100790.94
2022-11-09T22:38:51.554Z,100814.34
2022-11-09T22:44:13.111Z,100833.75
2022-11-09T22:49:34.215Z,100840.28
2022-11-09T22:54:54.471Z,100849.78
2022-11-09T23:00:16.123Z,100863.53
2022-11-09T23:05:36.140Z,100862.47
2022-11-09T23:10:56.368Z,100869.91
2022-11-09T23:16:16.544Z,100873.50
2022-11-09T23:21:37.431Z,100879.00
2022-11-09T23:26:57.361Z,100885.34
2022-11-09T23:32:17.212Z,100893.78
2022-11-09T23:37:37.207Z,100902.00
2022-11-09T23:43:05.644Z,100912.06
2022-11-09T23:48:25.943Z,100921.97
2022-11-09T23:53:46.136Z,100925.75
2022-11-09T23:59:08.456Z,100928.50
